Etusivu
METAR-TAF:

METAR-TAF

Lentoasemat :

Ämari, Viro

Ämarin lentotukikohta

Leveyspiiri: 59-15-44N, Pituuspiiri: 24-13-07E, korkeus merenpinnasta: 20 m

Tämänhetkinen sää

Tämä raportti tehtiin 18 minuuttia sitten, kello 09.50 UTC
Tuuli 8 kn idästä/kaakosta, vaihdellen idän ja kaakon välillä
Lämpötila 17°C
Kosteus 63%
Ilmanpaine 1033 hPa
Näkyvyys 10 km tai enemmän
ei pilviä alle 1500 m:ssä eikä cumulonimbus-pilviä

METAR: EEEI 240950Z 11008KT 080V140 CAVOK 17/10 Q1033

Aika: 13:08 (10:08 UTC)

Sääennuste

Tämä raportti tehtiin 4 tuntia ja 38 minuuttia sitten, kello 05.30 UTC
Ennuste voimassa 24. päivästä klo 06 UTC - 25. päivään klo 06 UTC
Tuuli 6 kn idästä
Näkyvyys 10 km tai enemmän
ei pilviä alle 1500 m:ssä eikä cumulonimbus-pilviä
Ajoittain
25. päivästä klo 00 UTC - 25. päivään klo 06 UTC
Näkyvyys: 2000 m
Hajonneita pilviä 400 ft:n korkeudessa
sumuhattaroita

TAF: EEEI 240530Z 2406/2506 09006KT CAVOK TEMPO 2500/2506 2000 BCFG BKN004

Säähavainnot ja -ennusteet yli 4000 lentoasemalta (METAR- ja TAF-raportit).

Käytössä olevat sääasemat on merkitty karttaan keltaisilla ja punaisilla pisteillä.

Aseta hiiri pisteen päälle nähdäksesi sääaseman nimen.

Klikkaa sitten nähdäksesi säähavainnot ja -ennusteet.

Kartan vaihtaminen: klikkaa mustalla rastilla varustettuja vihreitä pisteitä, niin voit zoomata sisään; viivalla varustettua vihreää pistettä, niin voit zoomata ulos tai vihreitä nuolia, niin pääset viereisille kartoille.


METAR-TAF: